Time;durP1;ratioP1;P1;durP2;ratioP2;P2;SDS_P1;SDS_P2;PMS_P1;PMS_P2;Temp;Humidity;BMP_temperature;BMP_pressure;BME280_temperature;BME280_humidity;BME280_pressure;Samples;Min_cycle;Max_cycle;Signal;HPM_P1;HPM_P2
2024/01/19 00:01:49;;;;;;;7.57;4.90;;;;;;;;;;10354441;28;20181;-59
2024/01/19 00:06:50;;;;;;;8.65;4.90;;;;;;;;;;10340796;28;20099;-59
2024/01/19 00:11:51;;;;;;;7.90;4.70;;;;;;;;;;10355127;28;20026;-59
2024/01/19 00:16:52;;;;;;;6.75;4.50;;;;;;;;;;10321491;28;20039;-59
2024/01/19 00:21:52;;;;;;;7.20;4.63;;;;;;;;;;10324684;28;20042;-59
2024/01/19 00:26:54;;;;;;;7.40;4.53;;;;;;;;;;10325580;28;20380;-59
2024/01/19 00:31:54;;;;;;;6.45;4.75;;;;;;;;;;10325066;28;20359;-59
2024/01/19 00:36:55;;;;;;;6.72;4.82;;;;;;;;;;10324913;28;20047;-59
2024/01/19 00:41:55;;;;;;;4.78;4.05;;;;;;;;;;10325109;28;20037;-59
2024/01/19 00:46:56;;;;;;;6.55;5.03;;;;;;;;;;10323643;28;20030;-59
2024/01/19 00:51:57;;;;;;;10.73;4.90;;;;;;;;;;10323805;28;20029;-59
2024/01/19 00:56:57;;;;;;;8.65;4.18;;;;;;;;;;10324612;28;20552;-59
2024/01/19 01:01:58;;;;;;;7.85;4.60;;;;;;;;;;10322915;28;20088;-59
2024/01/19 01:06:58;;;;;;;6.93;4.50;;;;;;;;;;10323563;28;20030;-59
2024/01/19 01:11:59;;;;;;;5.90;4.40;;;;;;;;;;10322473;28;20390;-59
2024/01/19 01:17:00;;;;;;;6.70;4.38;;;;;;;;;;10324223;28;20034;-59
2024/01/19 01:22:00;;;;;;;5.22;3.95;;;;;;;;;;10323211;28;20061;-59
2024/01/19 01:27:01;;;;;;;6.65;3.83;;;;;;;;;;10324135;28;20030;-59
2024/01/19 01:32:01;;;;;;;5.60;4.30;;;;;;;;;;10330486;28;20027;-59
2024/01/19 01:37:02;;;;;;;5.03;3.67;;;;;;;;;;10331115;28;20053;-60
2024/01/19 01:42:03;;;;;;;5.72;3.92;;;;;;;;;;10330707;28;20031;-59
2024/01/19 01:47:03;;;;;;;5.60;3.90;;;;;;;;;;10330131;28;20268;-59
2024/01/19 01:52:05;;;;;;;6.10;4.07;;;;;;;;;;10330716;28;20269;-59
2024/01/19 01:57:06;;;;;;;6.00;3.97;;;;;;;;;;10329744;28;20393;-59
2024/01/19 02:02:07;;;;;;;5.28;4.10;;;;;;;;;;10330411;28;20030;-58
2024/01/19 02:07:08;;;;;;;4.38;3.78;;;;;;;;;;10327419;28;20121;-59
2024/01/19 02:12:08;;;;;;;5.80;3.88;;;;;;;;;;10329628;28;20480;-60
2024/01/19 02:17:09;;;;;;;5.18;4.18;;;;;;;;;;10330821;28;20165;-59
2024/01/19 02:22:10;;;;;;;5.80;3.58;;;;;;;;;;10329604;28;20034;-59
2024/01/19 02:27:11;;;;;;;4.68;3.50;;;;;;;;;;10329799;28;20022;-59
2024/01/19 02:32:11;;;;;;;5.32;3.97;;;;;;;;;;10327422;28;20413;-59
2024/01/19 02:37:13;;;;;;;6.28;3.78;;;;;;;;;;10328945;28;20073;-59
2024/01/19 02:42:14;;;;;;;4.68;3.60;;;;;;;;;;10327528;28;20039;-59
2024/01/19 02:47:14;;;;;;;7.10;3.80;;;;;;;;;;10328384;28;20389;-59
2024/01/19 02:52:15;;;;;;;4.40;3.50;;;;;;;;;;10328026;28;20368;-59
2024/01/19 02:57:16;;;;;;;5.15;3.72;;;;;;;;;;10327689;28;20402;-59
2024/01/19 03:02:16;;;;;;;3.70;3.40;;;;;;;;;;10327700;28;20393;-59
2024/01/19 03:07:17;;;;;;;4.22;3.20;;;;;;;;;;10326933;28;20102;-60
2024/01/19 03:12:17;;;;;;;5.28;3.42;;;;;;;;;;10326641;28;20030;-60
2024/01/19 03:17:19;;;;;;;4.55;3.40;;;;;;;;;;10327590;28;20125;-59
2024/01/19 03:22:19;;;;;;;3.80;3.10;;;;;;;;;;10326845;28;20474;-59
2024/01/19 03:27:20;;;;;;;4.63;3.33;;;;;;;;;;10326713;28;20030;-59
2024/01/19 03:32:21;;;;;;;3.92;3.47;;;;;;;;;;10325566;28;20088;-59
2024/01/19 03:37:21;;;;;;;4.63;3.60;;;;;;;;;;10326149;28;20049;-59
2024/01/19 03:42:22;;;;;;;4.25;3.20;;;;;;;;;;10326505;28;20026;-58
2024/01/19 03:47:23;;;;;;;4.53;3.53;;;;;;;;;;10326020;28;20023;-59
2024/01/19 03:52:23;;;;;;;3.95;3.42;;;;;;;;;;10324647;28;20051;-59
2024/01/19 03:57:24;;;;;;;3.60;3.17;;;;;;;;;;10325066;28;20035;-60
2024/01/19 04:02:24;;;;;;;3.50;3.20;;;;;;;;;;10325708;28;20026;-60
2024/01/19 04:07:25;;;;;;;3.25;2.80;;;;;;;;;;10326030;28;20482;-60
2024/01/19 04:12:25;;;;;;;4.03;3.15;;;;;;;;;;10325439;28;20026;-60
2024/01/19 04:17:26;;;;;;;3.58;3.00;;;;;;;;;;10325532;28;20034;-60
2024/01/19 04:22:27;;;;;;;4.18;3.38;;;;;;;;;;10324445;28;20018;-59
2024/01/19 04:27:27;;;;;;;3.75;2.88;;;;;;;;;;10324221;28;20022;-59
2024/01/19 04:32:28;;;;;;;3.95;3.10;;;;;;;;;;10324375;28;20030;-59
2024/01/19 04:37:28;;;;;;;5.55;3.20;;;;;;;;;;10323558;28;20045;-59
2024/01/19 04:42:29;;;;;;;4.03;3.10;;;;;;;;;;10323790;28;20030;-59
2024/01/19 04:47:30;;;;;;;3.33;2.90;;;;;;;;;;10324778;28;20030;-60
2024/01/19 04:52:31;;;;;;;3.17;2.88;;;;;;;;;;10323079;28;20084;-59
2024/01/19 04:57:31;;;;;;;3.58;3.00;;;;;;;;;;10324149;28;20088;-59
2024/01/19 05:02:35;;;;;;;2.97;2.67;;;;;;;;;;10322962;28;20065;-60
2024/01/19 05:07:35;;;;;;;12.93;3.03;;;;;;;;;;10322846;28;20046;-60
2024/01/19 05:12:36;;;;;;;4.05;2.88;;;;;;;;;;10323630;28;20038;-60
2024/01/19 05:17:37;;;;;;;3.78;2.60;;;;;;;;;;10323711;28;20045;-60
2024/01/19 05:22:37;;;;;;;3.28;2.90;;;;;;;;;;10323271;28;20031;-60
2024/01/19 05:27:38;;;;;;;2.85;2.55;;;;;;;;;;10322721;28;20050;-60
2024/01/19 05:32:39;;;;;;;3.42;2.67;;;;;;;;;;10326309;28;20030;-60
2024/01/19 05:37:39;;;;;;;3.33;2.83;;;;;;;;;;10323723;28;20344;-60
2024/01/19 05:42:40;;;;;;;3.22;2.80;;;;;;;;;;10322643;28;20038;-60
2024/01/19 05:47:42;;;;;;;3.72;2.85;;;;;;;;;;10326004;28;20046;-60
2024/01/19 05:52:44;;;;;;;4.05;2.70;;;;;;;;;;10321610;28;20027;-60
2024/01/19 05:57:45;;;;;;;2.70;2.50;;;;;;;;;;10322631;28;20092;-60
2024/01/19 06:02:46;;;;;;;2.95;2.65;;;;;;;;;;10321815;28;20039;-60
2024/01/19 06:07:46;;;;;;;3.63;3.00;;;;;;;;;;10322835;28;20031;-60
2024/01/19 06:12:47;;;;;;;2.88;2.58;;;;;;;;;;10322740;28;20030;-60
2024/01/19 06:17:47;;;;;;;3.10;2.63;;;;;;;;;;10329481;28;20030;-58
2024/01/19 06:22:48;;;;;;;2.85;2.50;;;;;;;;;;10330278;28;20030;-60
2024/01/19 06:27:49;;;;;;;3.30;2.80;;;;;;;;;;10328542;28;20030;-60
2024/01/19 06:32:49;;;;;;;2.88;2.55;;;;;;;;;;10329007;28;20026;-60
2024/01/19 06:37:50;;;;;;;3.88;2.72;;;;;;;;;;10322383;28;20490;-60
2024/01/19 06:42:51;;;;;;;2.67;2.47;;;;;;;;;;10324513;28;20042;-60
2024/01/19 06:47:51;;;;;;;3.03;2.63;;;;;;;;;;10328232;28;20034;-59
2024/01/19 06:52:53;;;;;;;3.25;2.63;;;;;;;;;;10329328;28;20039;-59
2024/01/19 06:57:53;;;;;;;4.57;2.50;;;;;;;;;;10327259;28;20038;-59
2024/01/19 07:02:54;;;;;;;5.88;3.10;;;;;;;;;;10323864;28;20034;-59
2024/01/19 07:07:55;;;;;;;14.15;3.70;;;;;;;;;;10327725;28;20037;-59
2024/01/19 07:12:56;;;;;;;5.65;3.80;;;;;;;;;;10323749;28;20053;-59
2024/01/19 07:17:56;;;;;;;8.07;3.85;;;;;;;;;;10324877;28;20026;-59
2024/01/19 07:22:59;;;;;;;10.52;4.00;;;;;;;;;;10329096;28;20037;-60
2024/01/19 07:27:59;;;;;;;9.15;3.83;;;;;;;;;;10325653;28;20034;-60
2024/01/19 07:33:00;;;;;;;8.15;4.00;;;;;;;;;;10327114;28;20026;-60
2024/01/19 07:38:00;;;;;;;4.97;3.60;;;;;;;;;;10326633;28;20058;-60
2024/01/19 07:43:01;;;;;;;12.57;3.83;;;;;;;;;;10326940;28;20030;-60
2024/01/19 07:48:01;;;;;;;4.88;3.63;;;;;;;;;;10326746;28;20026;-60
2024/01/19 07:53:02;;;;;;;9.20;3.63;;;;;;;;;;10325955;28;20183;-60
2024/01/19 07:58:03;;;;;;;7.93;3.83;;;;;;;;;;10325501;28;20497;-60
2024/01/19 08:03:04;;;;;;;4.93;3.60;;;;;;;;;;10328249;28;20037;-60
2024/01/19 08:08:05;;;;;;;5.40;3.63;;;;;;;;;;10324659;28;20022;-60
2024/01/19 08:13:06;;;;;;;8.52;4.15;;;;;;;;;;10325025;28;20026;-60
2024/01/19 08:18:06;;;;;;;6.43;3.20;;;;;;;;;;10325259;28;20031;-60
2024/01/19 08:23:07;;;;;;;6.32;4.07;;;;;;;;;;10326088;28;20041;-60
2024/01/19 08:28:07;;;;;;;5.03;3.55;;;;;;;;;;10324446;28;20042;-60
2024/01/19 08:33:08;;;;;;;5.40;3.55;;;;;;;;;;10324928;28;20034;-61
2024/01/19 08:38:09;;;;;;;4.55;3.22;;;;;;;;;;10296573;28;20042;-60
2024/01/19 08:43:10;;;;;;;5.70;3.45;;;;;;;;;;10280481;28;20037;-59
2024/01/19 08:48:10;;;;;;;7.65;4.20;;;;;;;;;;10230595;28;20022;-59
2024/01/19 08:53:11;;;;;;;6.95;3.08;;;;;;;;;;10233944;28;20650;-59
2024/01/19 08:58:11;;;;;;;6.65;3.28;;;;;;;;;;10231409;28;20432;-59
2024/01/19 09:03:12;;;;;;;6.75;3.70;;;;;;;;;;10230874;28;20926;-59
2024/01/19 09:08:12;;;;;;;6.32;3.05;;;;;;;;;;10229299;28;20112;-60
2024/01/19 09:13:13;;;;;;;6.75;3.55;;;;;;;;;;10235816;28;20408;-60
2024/01/19 09:18:14;;;;;;;4.07;3.38;;;;;;;;;;10323948;28;20026;-60
2024/01/19 09:23:14;;;;;;;4.95;3.72;;;;;;;;;;10300539;28;20386;-59
2024/01/19 09:28:15;;;;;;;6.40;3.50;;;;;;;;;;10267509;28;20034;-59
2024/01/19 09:33:15;;;;;;;4.40;3.45;;;;;;;;;;10243222;28;20026;-59
2024/01/19 09:38:16;;;;;;;5.63;3.40;;;;;;;;;;10226633;28;20224;-59
2024/01/19 09:43:17;;;;;;;4.13;3.50;;;;;;;;;;10315740;28;20037;-60
2024/01/19 09:48:30;;;;;;;6.55;3.90;;;;;;;;;;10321846;28;20392;-60
2024/01/19 09:53:39;;;;;;;4.30;3.08;;;;;;;;;;10314803;28;20143;-60
2024/01/19 09:58:42;;;;;;;4.70;3.15;;;;;;;;;;10294829;28;20429;-59
2024/01/19 10:03:42;;;;;;;4.90;3.20;;;;;;;;;;10362167;28;20042;-60
2024/01/19 10:08:43;;;;;;;5.47;3.40;;;;;;;;;;10277256;28;20650;-60
2024/01/19 10:13:45;;;;;;;3.05;2.78;;;;;;;;;;10238948;28;21570;-60
2024/01/19 10:18:46;;;;;;;4.65;3.00;;;;;;;;;;10321397;28;20038;-59
2024/01/19 10:23:47;;;;;;;4.95;2.88;;;;;;;;;;10342618;28;20026;-60
2024/01/19 10:28:47;;;;;;;4.55;2.67;;;;;;;;;;10334810;28;20395;-60
2024/01/19 10:33:53;;;;;;;6.43;2.75;;;;;;;;;;10330009;28;20029;-60
2024/01/19 10:38:54;;;;;;;6.25;2.88;;;;;;;;;;10329335;28;20050;-60
2024/01/19 10:44:10;;;;;;;5.93;2.45;;;;;;;;;;10329255;28;20440;-60
2024/01/19 10:49:15;;;;;;;2.60;2.30;;;;;;;;;;10328314;28;20061;-60
2024/01/19 10:54:27;;;;;;;4.50;2.42;;;;;;;;;;10328767;28;20030;-60
2024/01/19 10:59:28;;;;;;;3.03;2.55;;;;;;;;;;10327880;28;20494;-60
2024/01/19 11:04:29;;;;;;;6.72;2.85;;;;;;;;;;10328753;28;20030;-60
2024/01/19 11:09:29;;;;;;;2.95;2.67;;;;;;;;;;10328609;28;20268;-60
2024/01/19 11:14:33;;;;;;;3.65;2.50;;;;;;;;;;10328223;28;20536;-60
2024/01/19 11:19:34;;;;;;;4.43;3.00;;;;;;;;;;10327235;28;20022;-61
2024/01/19 11:24:37;;;;;;;3.00;2.38;;;;;;;;;;10328087;28;20093;-60
2024/01/19 11:29:43;;;;;;;3.08;2.60;;;;;;;;;;10326359;28;20018;-61
2024/01/19 11:34:45;;;;;;;12.30;2.40;;;;;;;;;;10324405;28;20076;-60
2024/01/19 11:39:46;;;;;;;9.30;2.20;;;;;;;;;;10324991;28;20042;-60
2024/01/19 11:44:47;;;;;;;6.93;2.53;;;;;;;;;;10325029;28;20034;-60
2024/01/19 11:49:48;;;;;;;2.97;2.22;;;;;;;;;;10325541;28;20034;-60
2024/01/19 11:54:49;;;;;;;2.33;2.08;;;;;;;;;;10324909;28;20482;-60
2024/01/19 11:59:51;;;;;;;3.13;2.50;;;;;;;;;;10326205;28;20034;-60
2024/01/19 12:04:53;;;;;;;3.72;2.28;;;;;;;;;;10325086;28;20049;-60
2024/01/19 12:10:16;;;;;;;4.18;2.30;;;;;;;;;;10325309;28;20113;-60
2024/01/19 12:15:17;;;;;;;4.13;2.20;;;;;;;;;;10325553;28;20019;-60
2024/01/19 12:20:18;;;;;;;7.97;2.33;;;;;;;;;;10325159;28;20044;-60
2024/01/19 12:25:22;;;;;;;2.70;2.15;;;;;;;;;;10324156;28;20034;-60
2024/01/19 12:30:22;;;;;;;3.22;2.15;;;;;;;;;;10325337;28;20035;-60
2024/01/19 12:35:23;;;;;;;4.95;2.08;;;;;;;;;;10324339;28;20042;-61
2024/01/19 12:40:25;;;;;;;7.22;2.17;;;;;;;;;;10324180;28;20073;-60
2024/01/19 12:45:27;;;;;;;3.80;2.30;;;;;;;;;;10324561;28;20417;-60
2024/01/19 12:50:29;;;;;;;4.40;1.92;;;;;;;;;;10324989;28;20037;-60
2024/01/19 12:55:32;;;;;;;3.15;2.05;;;;;;;;;;10313379;28;20030;-60
2024/01/19 13:00:33;;;;;;;2.20;1.90;;;;;;;;;;10323710;28;20106;-60
2024/01/19 13:05:34;;;;;;;5.18;1.95;;;;;;;;;;10324231;28;20474;-60
2024/01/19 13:10:35;;;;;;;2.15;1.77;;;;;;;;;;10324322;28;20457;-60
2024/01/19 13:15:36;;;;;;;3.92;1.70;;;;;;;;;;10324945;28;20023;-60
2024/01/19 13:20:38;;;;;;;3.28;1.90;;;;;;;;;;10324578;28;20066;-60
2024/01/19 13:25:39;;;;;;;1.63;1.50;;;;;;;;;;10328659;28;20061;-60
2024/01/19 13:30:39;;;;;;;4.20;1.67;;;;;;;;;;10332454;28;20029;-61
2024/01/19 13:35:40;;;;;;;3.33;1.75;;;;;;;;;;10332108;28;20586;-60
2024/01/19 13:40:41;;;;;;;2.53;1.42;;;;;;;;;;10332329;28;20078;-60
2024/01/19 13:45:41;;;;;;;1.70;1.60;;;;;;;;;;10331798;28;20043;-60
2024/01/19 13:50:42;;;;;;;1.73;1.63;;;;;;;;;;10330519;28;20371;-61
2024/01/19 13:55:43;;;;;;;6.85;1.70;;;;;;;;;;10329833;28;20508;-61
2024/01/19 14:00:44;;;;;;;2.38;1.42;;;;;;;;;;10330879;28;20034;-61
2024/01/19 14:05:47;;;;;;;2.28;1.55;;;;;;;;;;10330028;28;20576;-61
2024/01/19 14:10:49;;;;;;;5.35;1.80;;;;;;;;;;10319738;28;20113;-62
2024/01/19 14:15:50;;;;;;;3.47;1.55;;;;;;;;;;10329893;28;20030;-61
2024/01/19 14:20:50;;;;;;;3.40;1.80;;;;;;;;;;10329201;28;20038;-61
2024/01/19 14:25:52;;;;;;;11.77;2.10;;;;;;;;;;10328555;28;20034;-61
2024/01/19 14:30:52;;;;;;;5.10;1.80;;;;;;;;;;10330379;28;20041;-61
2024/01/19 14:35:53;;;;;;;4.43;1.50;;;;;;;;;;10328249;28;20034;-61
2024/01/19 14:40:54;;;;;;;3.60;1.65;;;;;;;;;;10329176;28;20030;-61
2024/01/19 14:45:55;;;;;;;1.88;1.42;;;;;;;;;;10330128;28;20454;-61
2024/01/19 14:50:56;;;;;;;5.15;1.40;;;;;;;;;;10329590;28;20076;-61
2024/01/19 14:55:56;;;;;;;1.92;1.48;;;;;;;;;;10328423;28;20037;-61
2024/01/19 15:00:57;;;;;;;2.83;1.17;;;;;;;;;;10326678;28;20034;-62
2024/01/19 15:05:58;;;;;;;1.88;1.70;;;;;;;;;;10328548;28;20034;-61
2024/01/19 15:10:59;;;;;;;6.82;1.52;;;;;;;;;;10328694;28;20193;-61
2024/01/19 15:16:00;;;;;;;2.55;1.52;;;;;;;;;;10326147;28;20166;-61
2024/01/19 15:21:00;;;;;;;2.50;1.42;;;;;;;;;;10326888;28;20406;-61
2024/01/19 15:26:01;;;;;;;1.52;1.30;;;;;;;;;;10328379;28;20034;-61
2024/01/19 15:31:02;;;;;;;4.25;1.50;;;;;;;;;;10327644;28;20026;-61
2024/01/19 15:36:08;;;;;;;6.47;1.50;;;;;;;;;;10327408;28;20109;-61
2024/01/19 15:41:08;;;;;;;1.73;1.35;;;;;;;;;;10327075;28;20030;-61
2024/01/19 15:46:09;;;;;;;3.70;1.30;;;;;;;;;;10325521;28;20030;-61
2024/01/19 15:51:10;;;;;;;3.55;1.35;;;;;;;;;;10326998;28;20097;-61
2024/01/19 15:56:27;;;;;;;3.58;1.33;;;;;;;;;;10326954;28;20019;-62
2024/01/19 16:01:27;;;;;;;3.13;1.63;;;;;;;;;;10324106;28;20104;-61
2024/01/19 16:06:28;;;;;;;2.60;1.63;;;;;;;;;;10322795;28;20037;-62
2024/01/19 16:11:30;;;;;;;4.63;1.67;;;;;;;;;;10326521;28;20029;-62
2024/01/19 16:16:32;;;;;;;9.40;1.75;;;;;;;;;;10325927;28;20085;-61
2024/01/19 16:21:33;;;;;;;8.57;1.60;;;;;;;;;;10325594;28;20074;-62
2024/01/19 16:26:36;;;;;;;3.80;1.65;;;;;;;;;;10325258;28;20036;-61
2024/01/19 16:31:36;;;;;;;3.22;1.60;;;;;;;;;;10325142;28;20022;-61
2024/01/19 16:36:41;;;;;;;3.15;1.70;;;;;;;;;;10310280;28;20043;-61
2024/01/19 16:41:43;;;;;;;3.20;1.77;;;;;;;;;;10324435;28;20397;-61
2024/01/19 16:46:44;;;;;;;4.72;1.70;;;;;;;;;;10324851;28;20493;-61
2024/01/19 16:51:48;;;;;;;2.35;1.48;;;;;;;;;;10324603;28;20060;-62
2024/01/19 16:56:51;;;;;;;5.72;1.92;;;;;;;;;;10323736;28;20474;-61
2024/01/19 17:01:52;;;;;;;4.03;1.60;;;;;;;;;;10323238;28;20030;-61
2024/01/19 17:06:53;;;;;;;2.00;1.45;;;;;;;;;;10323978;28;20026;-61
2024/01/19 17:11:53;;;;;;;3.80;1.67;;;;;;;;;;10324060;28;20026;-61
2024/01/19 17:16:54;;;;;;;5.53;1.55;;;;;;;;;;10323403;28;20038;-61
2024/01/19 17:21:54;;;;;;;4.35;1.60;;;;;;;;;;10323412;28;20038;-61
2024/01/19 17:26:55;;;;;;;1.98;1.50;;;;;;;;;;10323156;28;20046;-61
2024/01/19 17:31:56;;;;;;;2.10;1.80;;;;;;;;;;10323864;28;20046;-62
2024/01/19 17:36:56;;;;;;;3.63;1.98;;;;;;;;;;10300813;28;20069;-62
2024/01/19 17:41:57;;;;;;;4.18;1.50;;;;;;;;;;10287880;28;20042;-62
2024/01/19 17:46:58;;;;;;;2.63;1.40;;;;;;;;;;10268736;28;20026;-62
2024/01/19 17:51:59;;;;;;;2.72;1.50;;;;;;;;;;10226658;28;20489;-62
2024/01/19 17:57:00;;;;;;;3.22;1.75;;;;;;;;;;10238343;28;20031;-62
2024/01/19 18:02:00;;;;;;;6.85;1.77;;;;;;;;;;10231547;28;20022;-62
2024/01/19 18:07:01;;;;;;;6.68;1.50;;;;;;;;;;10303544;28;20038;-62
2024/01/19 18:12:03;;;;;;;3.10;1.67;;;;;;;;;;10322228;28;20038;-62
2024/01/19 18:17:03;;;;;;;8.05;1.80;;;;;;;;;;10327035;28;20378;-61
2024/01/19 18:22:04;;;;;;;5.95;1.52;;;;;;;;;;10300828;28;20026;-59
2024/01/19 18:27:05;;;;;;;5.15;1.73;;;;;;;;;;10331666;28;20525;-61
2024/01/19 18:32:07;;;;;;;6.47;1.40;;;;;;;;;;10310180;28;20405;-60
2024/01/19 18:37:07;;;;;;;6.70;1.80;;;;;;;;;;10295159;28;20053;-60
2024/01/19 18:42:08;;;;;;;4.40;1.48;;;;;;;;;;10292053;28;20073;-60
2024/01/19 18:47:09;;;;;;;3.35;1.60;;;;;;;;;;10326663;28;20041;-60
2024/01/19 18:52:10;;;;;;;3.67;1.70;;;;;;;;;;10334767;28;20034;-61
2024/01/19 18:57:10;;;;;;;1.50;1.38;;;;;;;;;;10312690;28;20493;-60
2024/01/19 19:02:11;;;;;;;4.53;1.60;;;;;;;;;;10283068;28;20061;-60
2024/01/19 19:07:11;;;;;;;1.67;1.45;;;;;;;;;;10329925;28;20498;-60
2024/01/19 19:12:12;;;;;;;2.67;1.33;;;;;;;;;;10252879;28;20505;-61
2024/01/19 19:17:13;;;;;;;1.52;1.42;;;;;;;;;;10322064;28;20841;-60
2024/01/19 19:22:14;;;;;;;1.75;1.60;;;;;;;;;;10323614;28;20042;-60
2024/01/19 19:27:15;;;;;;;2.58;1.70;;;;;;;;;;10326579;28;20114;-60
2024/01/19 19:32:16;;;;;;;3.45;1.77;;;;;;;;;;10337413;28;20038;-61
2024/01/19 19:37:18;;;;;;;2.90;1.65;;;;;;;;;;10290569;28;20126;-61
2024/01/19 19:42:19;;;;;;;1.95;1.30;;;;;;;;;;10322285;28;20163;-61
2024/01/19 19:47:20;;;;;;;3.63;1.92;;;;;;;;;;10294349;28;20037;-60
2024/01/19 19:52:21;;;;;;;3.35;1.80;;;;;;;;;;10326285;28;20037;-61
2024/01/19 19:57:21;;;;;;;3.63;1.67;;;;;;;;;;10228990;28;20115;-60
2024/01/19 20:02:22;;;;;;;7.75;1.65;;;;;;;;;;10236643;28;20080;-60
2024/01/19 20:07:22;;;;;;;1.63;1.50;;;;;;;;;;10328508;28;20038;-60
2024/01/19 20:12:23;;;;;;;2.78;1.80;;;;;;;;;;10332255;28;20027;-60
2024/01/19 20:17:23;;;;;;;2.72;1.92;;;;;;;;;;10333834;28;20024;-60
2024/01/19 20:22:24;;;;;;;1.67;1.58;;;;;;;;;;10336331;28;20042;-60
2024/01/19 20:27:24;;;;;;;3.13;2.08;;;;;;;;;;10312685;28;20209;-61
2024/01/19 20:32:25;;;;;;;2.63;1.60;;;;;;;;;;10332163;28;20441;-60
2024/01/19 20:37:27;;;;;;;2.00;1.70;;;;;;;;;;10300093;28;20402;-60
2024/01/19 20:42:28;;;;;;;5.60;2.15;;;;;;;;;;10314500;28;20136;-61
2024/01/19 20:47:28;;;;;;;2.05;1.73;;;;;;;;;;10221478;28;21828;-60
2024/01/19 20:52:29;;;;;;;4.40;1.60;;;;;;;;;;10224959;28;20029;-61
2024/01/19 20:57:30;;;;;;;2.97;1.92;;;;;;;;;;10229627;28;20072;-60
2024/01/19 21:02:30;;;;;;;2.17;1.70;;;;;;;;;;10287814;28;20701;-61
2024/01/19 21:07:31;;;;;;;2.20;2.00;;;;;;;;;;10291528;28;20032;-61
2024/01/19 21:12:32;;;;;;;2.95;1.73;;;;;;;;;;10332525;28;20030;-61
2024/01/19 21:17:33;;;;;;;2.00;1.63;;;;;;;;;;10329828;28;20083;-60
2024/01/19 21:22:34;;;;;;;2.20;1.92;;;;;;;;;;10334473;28;20080;-61
2024/01/19 21:27:39;;;;;;;2.60;1.98;;;;;;;;;;10328767;28;20109;-61
2024/01/19 21:32:40;;;;;;;3.35;1.95;;;;;;;;;;10326004;28;20181;-60
2024/01/19 21:37:40;;;;;;;1.70;1.60;;;;;;;;;;10340197;28;20046;-61
2024/01/19 21:42:43;;;;;;;2.88;2.13;;;;;;;;;;10324980;28;20042;-61
2024/01/19 21:47:44;;;;;;;2.20;1.83;;;;;;;;;;10343903;28;20034;-61
2024/01/19 21:52:45;;;;;;;2.40;2.20;;;;;;;;;;10334411;28;20022;-61
2024/01/19 21:57:46;;;;;;;4.38;2.00;;;;;;;;;;10342049;28;20497;-60
2024/01/19 22:02:48;;;;;;;4.32;2.10;;;;;;;;;;10333208;28;20030;-61
2024/01/19 22:07:49;;;;;;;3.45;2.03;;;;;;;;;;10332761;28;20500;-61
2024/01/19 22:12:50;;;;;;;2.25;1.90;;;;;;;;;;10330455;28;20037;-61
2024/01/19 22:17:50;;;;;;;2.33;2.08;;;;;;;;;;10337103;28;20031;-62
2024/01/19 22:22:51;;;;;;;2.67;1.70;;;;;;;;;;10331286;28;20026;-61
2024/01/19 22:27:51;;;;;;;9.65;2.42;;;;;;;;;;10333139;28;20030;-61
2024/01/19 22:32:52;;;;;;;3.70;2.45;;;;;;;;;;10333196;28;20041;-61
2024/01/19 22:37:53;;;;;;;8.07;2.80;;;;;;;;;;10337301;28;20297;-61
2024/01/19 22:42:53;;;;;;;7.40;2.60;;;;;;;;;;10343400;28;20036;-61
2024/01/19 22:47:54;;;;;;;6.00;2.30;;;;;;;;;;10333511;28;20038;-61
2024/01/19 22:52:54;;;;;;;6.82;2.20;;;;;;;;;;10330027;28;20037;-62
2024/01/19 22:57:55;;;;;;;7.10;2.38;;;;;;;;;;10314548;28;20057;-61
2024/01/19 23:02:56;;;;;;;4.57;2.40;;;;;;;;;;10326532;28;20038;-60
2024/01/19 23:07:56;;;;;;;3.13;2.20;;;;;;;;;;10324440;28;20018;-61
2024/01/19 23:13:00;;;;;;;2.88;2.00;;;;;;;;;;10348020;28;20026;-61
2024/01/19 23:18:00;;;;;;;7.90;2.45;;;;;;;;;;10329730;28;20394;-61
2024/01/19 23:23:01;;;;;;;3.08;2.25;;;;;;;;;;10327357;28;20042;-61
2024/01/19 23:28:05;;;;;;;3.58;2.10;;;;;;;;;;10326355;28;20037;-61
2024/01/19 23:33:05;;;;;;;4.88;2.10;;;;;;;;;;10327308;28;20061;-61
2024/01/19 23:38:06;;;;;;;4.35;2.10;;;;;;;;;;10322928;28;20048;-61
2024/01/19 23:43:07;;;;;;;7.32;2.60;;;;;;;;;;10323887;28;20425;-61
2024/01/19 23:48:07;;;;;;;5.05;2.40;;;;;;;;;;10252597;28;20417;-61
2024/01/19 23:53:08;;;;;;;5.88;2.60;;;;;;;;;;10305509;28;20390;-61
2024/01/19 23:58:09;;;;;;;4.70;2.33;;;;;;;;;;10224134;28;20866;-61
